Time;durP1;ratioP1;P1;durP2;ratioP2;P2;SDS_P1;SDS_P2;PMS_P1;PMS_P2;Temp;Humidity;BMP_temperature;BMP_pressure;BME280_temperature;BME280_humidity;BME280_pressure;Samples;Min_cycle;Max_cycle;Signal;HPM_P1;HPM_P2
2023/01/26 00:01:28;;;;;;;56.47;21.42;;;-0.50;99.90;;;;;;5039339;28;20432;-84
2023/01/26 00:03:54;;;;;;;58.75;20.95;;;0.20;99.90;;;;;;5055663;28;20045;-84
2023/01/26 00:06:23;;;;;;;59.70;20.95;;;-0.50;99.90;;;;;;5055821;28;20072;-84
2023/01/26 00:08:52;;;;;;;67.05;23.20;;;-0.50;99.90;;;;;;5038938;28;20044;-84
2023/01/26 00:11:23;;;;;;;66.80;22.35;;;-0.50;99.90;;;;;;5055902;28;20044;-84
2023/01/26 00:13:49;;;;;;;71.25;23.25;;;-0.60;99.90;;;;;;5039234;28;20045;-85
2023/01/26 00:16:15;;;;;;;71.57;23.00;;;-0.30;99.90;;;;;;5055735;28;20045;-84
2023/01/26 00:18:42;;;;;;;66.05;23.70;;;-0.40;99.90;;;;;;5039207;28;20044;-83
2023/01/26 00:21:12;;;;;;;65.22;22.63;;;-0.40;99.90;;;;;;5038915;28;20092;-86
2023/01/26 00:23:37;;;;;;;58.35;19.83;;;-0.40;99.90;;;;;;5055388;28;20048;-85
2023/01/26 00:26:07;;;;;;;58.30;20.15;;;-0.40;99.90;;;;;;5039585;28;20116;-86
2023/01/26 00:28:32;;;;;;;60.22;20.83;;;0.10;99.90;;;;;;5055551;28;20053;-83
2023/01/26 00:31:18;;;;;;;69.60;21.98;;;-0.40;99.90;;;;;;5055314;28;20083;-84
2023/01/26 00:33:44;;;;;;;62.17;21.58;;;-0.50;99.90;;;;;;5055270;28;20060;-83
2023/01/26 00:36:11;;;;;;;64.30;21.10;;;-0.60;99.90;;;;;;5054794;28;20041;-84
2023/01/26 00:38:37;;;;;;;56.72;20.98;;;-0.40;99.90;;;;;;5055386;28;20092;-84
2023/01/26 00:41:03;;;;;;;59.83;22.17;;;-0.50;99.90;;;;;;5055247;28;20048;-84
2023/01/26 00:43:28;;;;;;;65.38;22.77;;;-0.50;99.90;;;;;;5055212;28;20056;-85
2023/01/26 00:45:54;;;;;;;66.07;23.50;;;-0.50;99.90;;;;;;5056134;28;20476;-84
2023/01/26 00:48:20;;;;;;;69.30;23.30;;;0.00;99.90;;;;;;5055658;28;20563;-84
2023/01/26 00:50:45;;;;;;;67.90;22.58;;;-0.60;99.90;;;;;;5037123;28;20041;-84
2023/01/26 00:53:11;;;;;;;71.25;23.13;;;-0.50;99.90;;;;;;5038568;28;20051;-84
2023/01/26 00:55:37;;;;;;;62.08;22.15;;;-0.50;99.90;;;;;;5054695;28;20033;-84
2023/01/26 00:58:05;;;;;;;66.10;24.35;;;-0.40;99.90;;;;;;5054578;28;20045;-84
2023/01/26 01:00:31;;;;;;;66.38;23.55;;;-1.00;99.90;;;;;;5055760;28;20044;-85
2023/01/26 01:02:57;;;;;;;72.45;24.65;;;-0.10;99.90;;;;;;5054591;28;20392;-85
2023/01/26 01:05:25;;;;;;;65.97;22.88;;;-0.60;99.90;;;;;;5038123;28;20048;-85
2023/01/26 01:07:51;;;;;;;67.05;22.15;;;-0.50;99.90;;;;;;5054618;28;20045;-82
2023/01/26 01:10:16;;;;;;;66.05;24.27;;;-1.10;99.90;;;;;;5021351;28;20373;-85
2023/01/26 01:12:42;;;;;;;73.70;25.25;;;-0.50;99.90;;;;;;5037999;28;20127;-83
2023/01/26 01:15:08;;;;;;;78.30;24.50;;;-0.50;99.90;;;;;;5054884;28;20037;-85
2023/01/26 01:17:37;;;;;;;68.90;25.00;;;-0.50;99.90;;;;;;5054232;28;20128;-85
2023/01/26 01:20:05;;;;;;;65.65;22.23;;;-1.10;99.90;;;;;;5055263;28;20037;-85
2023/01/26 01:22:34;;;;;;;75.05;24.08;;;-0.50;99.90;;;;;;5054394;28;20088;-85
2023/01/26 01:25:00;;;;;;;74.22;24.90;;;0.30;99.90;;;;;;5054301;28;20041;-83
2023/01/26 01:27:25;;;;;;;78.68;25.23;;;-0.50;99.90;;;;;;5054430;28;20068;-85
2023/01/26 01:29:52;;;;;;;69.60;23.52;;;-0.30;99.90;;;;;;5054044;28;20068;-83
2023/01/26 01:32:18;;;;;;;67.97;24.02;;;-0.50;99.90;;;;;;5054165;28;20045;-85
2023/01/26 01:34:46;;;;;;;70.15;23.92;;;-0.50;99.90;;;;;;5037469;28;20045;-85
2023/01/26 01:37:12;;;;;;;70.40;22.73;;;0.20;99.90;;;;;;5038071;28;20053;-83
2023/01/26 01:39:38;;;;;;;68.97;22.25;;;-0.40;99.90;;;;;;5054076;28;20059;-85
2023/01/26 01:42:04;;;;;;;62.55;22.42;;;-0.30;99.90;;;;;;5054068;28;20507;-85
2023/01/26 01:44:29;;;;;;;65.95;22.67;;;-0.40;99.90;;;;;;5054020;28;20523;-84
2023/01/26 01:47:01;;;;;;;65.10;21.23;;;-0.40;99.90;;;;;;5054153;28;20115;-83
2023/01/26 01:49:37;;;;;;;68.35;22.33;;;-0.40;99.90;;;;;;5053278;28;20057;-84
2023/01/26 01:52:17;;;;;;;68.47;22.05;;;-0.40;99.90;;;;;;5054015;28;20044;-84
2023/01/26 01:55:09;;;;;;;67.50;22.42;;;-0.40;99.90;;;;;;5053249;28;20485;-83
2023/01/26 01:57:44;;;;;;;67.47;23.58;;;-0.40;99.90;;;;;;5054561;28;20044;-86
2023/01/26 02:00:12;;;;;;;71.07;23.67;;;-0.40;99.90;;;;;;5055179;28;20107;-85
2023/01/26 02:02:40;;;;;;;64.22;21.60;;;-0.30;99.90;;;;;;5036943;28;20045;-86
2023/01/26 02:05:34;;;;;;;61.10;20.65;;;-0.30;99.90;;;;;;5053578;28;20106;-85
2023/01/26 02:08:01;;;;;;;61.80;20.60;;;-0.40;99.90;;;;;;5051868;28;20079;-85
2023/01/26 02:10:28;;;;;;;64.50;21.08;;;-0.40;99.90;;;;;;5037047;28;20053;-84
2023/01/26 02:12:56;;;;;;;59.25;20.73;;;0.70;99.90;;;;;;5053489;28;20033;-85
2023/01/26 02:15:21;;;;;;;;;;;-0.20;99.90;;;;;;5054564;28;20507;-84
2023/01/26 02:17:50;;;;;;;63.65;22.67;;;-0.30;99.90;;;;;;5053351;28;19921;-86
2023/01/26 02:20:39;;;;;;;57.08;20.55;;;2.20;99.90;;;;;;5053269;28;20139;-84
2023/01/26 02:23:30;;;;;;;64.30;20.55;;;0.10;99.90;;;;;;5036908;28;20090;-86
2023/01/26 02:26:04;;;;;;;55.75;20.15;;;-0.30;99.90;;;;;;5036592;28;20045;-85
2023/01/26 02:28:31;;;;;;;52.67;18.65;;;-0.30;99.90;;;;;;5036726;28;20072;-86
2023/01/26 02:30:58;;;;;;;55.33;19.25;;;0.50;99.90;;;;;;5054047;28;20106;-83
2023/01/26 02:33:27;;;;;;;47.13;17.58;;;-0.30;99.90;;;;;;5054503;28;20508;-86
2023/01/26 02:35:52;;;;;;;53.10;18.52;;;-0.40;99.90;;;;;;5053260;28;20045;-86
2023/01/26 02:38:20;;;;;;;47.00;17.58;;;-0.30;99.90;;;;;;5052682;28;20140;-85
2023/01/26 02:40:54;;;;;;;56.78;19.38;;;-0.20;99.90;;;;;;5053859;28;20048;-86
2023/01/26 02:43:22;;;;;;;53.40;19.48;;;-0.20;99.90;;;;;;5053604;28;20427;-84
2023/01/26 02:45:48;;;;;;;48.75;18.02;;;-0.20;99.90;;;;;;5035867;28;20041;-83
2023/01/26 02:49:45;;;;;;;49.85;18.52;;;-0.20;99.90;;;;;;5053698;28;20060;-84
2023/01/26 02:50:59;;;;;;;60.63;20.40;;;-0.20;99.90;;;;;;5053682;28;20049;-85
2023/01/26 02:53:25;;;;;;;50.83;18.15;;;-0.20;99.90;;;;;;5053656;28;20416;-83
2023/01/26 02:55:51;;;;;;;51.00;18.13;;;-0.20;99.90;;;;;;5052759;28;20036;-85
2023/01/26 02:58:16;;;;;;;45.58;16.65;;;-0.20;99.90;;;;;;5036024;28;20055;-84
2023/01/26 03:00:42;;;;;;;44.47;15.88;;;-0.20;99.90;;;;;;5052390;28;20041;-84
2023/01/26 03:03:18;;;;;;;44.83;15.63;;;1.10;99.90;;;;;;5053617;28;20113;-85
2023/01/26 03:05:45;;;;;;;44.03;16.25;;;0.00;99.90;;;;;;5036116;28;20045;-84
2023/01/26 03:08:11;;;;;;;41.95;15.23;;;1.10;99.90;;;;;;5035956;28;20045;-85
2023/01/26 03:10:37;;;;;;;43.65;14.80;;;0.00;99.90;;;;;;5035837;28;20048;-85
2023/01/26 03:13:03;;;;;;;42.27;14.73;;;-0.10;99.90;;;;;;5051738;28;20052;-84
2023/01/26 03:15:41;;;;;;;38.73;14.93;;;-0.10;99.90;;;;;;5052372;28;20127;-84
2023/01/26 03:29:19;;;;;;;35.20;13.23;;;1.20;99.90;;;;;;5052600;28;20408;-85
2023/01/26 03:31:45;;;;;;;27.57;12.70;;;0.60;99.90;;;;;;5035758;28;20136;-86
2023/01/26 03:34:11;;;;;;;34.58;12.38;;;-0.10;99.90;;;;;;5052116;28;20326;-85
2023/01/26 03:36:36;;;;;;;29.77;13.10;;;-0.10;99.90;;;;;;5051856;28;20044;-84
2023/01/26 03:39:03;;;;;;;29.25;11.43;;;-0.10;99.90;;;;;;5053069;28;20051;-84
2023/01/26 03:57:54;;;;;;;23.20;9.93;;;0.50;99.90;;;;;;5052667;28;20049;-86
2023/01/26 04:00:20;;;;;;;25.10;9.35;;;1.50;99.90;;;;;;5052096;28;20052;-85
2023/01/26 04:08:24;;;;;;;20.30;8.70;;;0.10;99.90;;;;;;5053010;28;20125;-87
2023/01/26 04:10:53;;;;;;;24.30;8.85;;;0.10;99.90;;;;;;5035703;28;20461;-84
2023/01/26 04:21:36;;;;;;;21.67;8.13;;;0.40;99.90;;;;;;5053105;28;20064;-84
2023/01/26 04:24:08;;;;;;;19.50;8.63;;;0.20;99.90;;;;;;5051625;28;20128;-86
2023/01/26 04:26:35;;;;;;;16.35;7.90;;;0.20;99.90;;;;;;5055248;28;20051;-84
2023/01/26 04:29:06;;;;;;;18.75;8.48;;;0.20;99.90;;;;;;5056447;28;20128;-83
2023/01/26 04:31:32;;;;;;;18.40;8.57;;;0.90;99.90;;;;;;5055648;28;20041;-86
2023/01/26 04:34:02;;;;;;;17.03;8.47;;;0.20;99.90;;;;;;5055460;28;20131;-86
2023/01/26 04:36:27;;;;;;;19.38;8.15;;;0.20;99.90;;;;;;5055049;28;20047;-86
2023/01/26 04:38:53;;;;;;;18.20;7.95;;;0.20;99.90;;;;;;5055279;28;20140;-84
2023/01/26 04:41:19;;;;;;;17.50;8.52;;;0.30;99.90;;;;;;5038671;28;20060;-87
2023/01/26 04:43:45;;;;;;;17.67;7.43;;;0.30;99.90;;;;;;5056145;28;20485;-83
2023/01/26 04:46:11;;;;;;;17.83;7.72;;;0.50;99.90;;;;;;5038574;28;20041;-85
2023/01/26 04:48:36;;;;;;;16.92;7.47;;;0.20;99.90;;;;;;5054932;28;20108;-83
2023/01/26 04:51:11;;;;;;;17.05;7.55;;;0.40;99.90;;;;;;5054921;28;20496;-83
2023/01/26 04:53:37;;;;;;;20.73;7.68;;;0.30;99.90;;;;;;5056292;28;20404;-87
2023/01/26 04:56:03;;;;;;;19.80;8.20;;;0.30;99.90;;;;;;5055177;28;20056;-85
2023/01/26 04:58:28;;;;;;;16.17;7.45;;;0.40;99.90;;;;;;5038355;28;20041;-84
2023/01/26 05:00:56;;;;;;;16.40;7.45;;;1.10;99.90;;;;;;5055757;28;20072;-87
2023/01/26 05:03:23;;;;;;;17.13;7.88;;;0.80;99.90;;;;;;5054741;28;20044;-86
2023/01/26 05:05:50;;;;;;;;;;;0.40;99.90;;;;;;5054961;28;20511;-86
2023/01/26 05:08:16;;;;;;;14.95;6.88;;;0.20;99.90;;;;;;5054229;28;20288;-85
2023/01/26 05:10:42;;;;;;;14.18;6.47;;;0.40;99.90;;;;;;5054349;28;20052;-85
2023/01/26 05:13:08;;;;;;;16.13;7.75;;;0.40;99.90;;;;;;5054567;28;20045;-86
2023/01/26 05:15:34;;;;;;;17.25;8.00;;;1.00;99.90;;;;;;5054509;28;20140;-84
2023/01/26 05:18:00;;;;;;;13.90;6.50;;;0.40;99.90;;;;;;5054354;28;20041;-86
2023/01/26 05:20:25;;;;;;;14.68;6.45;;;0.30;99.90;;;;;;5055152;28;20052;-84
2023/01/26 05:22:51;;;;;;;12.07;6.60;;;0.40;99.90;;;;;;5055269;28;20093;-87
2023/01/26 05:25:17;;;;;;;14.20;6.88;;;0.60;99.90;;;;;;5037733;28;20049;-87
2023/01/26 05:27:43;;;;;;;15.90;6.60;;;0.80;99.90;;;;;;5054798;28;20052;-84
2023/01/26 05:30:09;;;;;;;15.98;6.60;;;0.50;99.90;;;;;;5055471;28;20491;-84
2023/01/26 05:32:35;;;;;;;14.43;6.72;;;0.50;99.90;;;;;;5054356;28;20446;-87
2023/01/26 05:35:02;;;;;;;14.18;6.43;;;0.50;99.90;;;;;;5054159;28;20147;-88
2023/01/26 05:37:28;;;;;;;16.35;6.97;;;0.50;99.90;;;;;;5053714;28;20041;-86
2023/01/26 05:39:54;;;;;;;15.48;7.65;;;0.50;99.90;;;;;;5054284;28;20045;-85
2023/01/26 05:42:20;;;;;;;17.85;6.88;;;0.90;99.90;;;;;;5053900;28;20041;-86
2023/01/26 05:44:46;;;;;;;13.52;6.32;;;0.50;99.90;;;;;;5037471;28;20051;-84
2023/01/26 05:47:12;;;;;;;15.77;7.68;;;0.50;99.90;;;;;;5053581;28;20040;-85
2023/01/26 05:49:41;;;;;;;14.82;6.68;;;0.50;99.90;;;;;;5036853;28;20053;-87
2023/01/26 05:52:13;;;;;;;13.90;6.35;;;1.00;99.90;;;;;;5055352;28;20455;-86
2023/01/26 05:54:39;;;;;;;14.30;6.90;;;0.50;99.90;;;;;;5037279;28;20053;-85
2023/01/26 05:57:05;;;;;;;16.27;6.90;;;0.50;99.90;;;;;;5053879;28;20357;-87
2023/01/26 05:59:30;;;;;;;15.85;6.63;;;0.50;99.90;;;;;;5037173;28;20048;-88
2023/01/26 06:01:56;;;;;;;16.17;7.32;;;0.50;99.90;;;;;;5053777;28;20041;-88
2023/01/26 06:04:22;;;;;;;15.35;7.20;;;0.60;99.90;;;;;;5054758;28;20053;-86
2023/01/26 06:06:50;;;;;;;15.38;8.00;;;0.60;99.90;;;;;;5053816;28;20037;-84
2023/01/26 06:09:16;;;;;;;14.98;7.30;;;1.40;99.90;;;;;;5054435;28;20083;-85
2023/01/26 06:11:42;;;;;;;14.52;6.82;;;0.60;99.90;;;;;;5053345;28;20095;-84
2023/01/26 06:14:07;;;;;;;16.00;7.28;;;0.50;99.90;;;;;;5053433;28;20048;-84
2023/01/26 06:16:33;;;;;;;16.45;6.40;;;0.50;99.90;;;;;;5036913;28;20107;-89
2023/01/26 06:18:58;;;;;;;18.80;6.90;;;0.60;99.90;;;;;;5036998;28;20131;-87
2023/01/26 06:21:24;;;;;;;11.68;6.30;;;0.80;99.90;;;;;;5053560;28;20388;-86
2023/01/26 06:23:49;;;;;;;16.83;7.75;;;0.50;99.90;;;;;;5036803;28;20051;-87
2023/01/26 06:26:15;;;;;;;14.95;6.20;;;0.50;99.90;;;;;;5053747;28;20041;-85
2023/01/26 06:28:41;;;;;;;16.50;6.50;;;0.60;99.90;;;;;;5053352;28;20120;-85
2023/01/26 06:31:07;;;;;;;16.13;7.10;;;0.90;99.90;;;;;;5053833;28;20037;-85
2023/01/26 06:33:35;;;;;;;17.92;7.28;;;0.60;99.90;;;;;;5053163;28;20092;-87
2023/01/26 06:36:03;;;;;;;14.65;6.90;;;0.60;99.90;;;;;;5053058;28;20049;-84
2023/01/26 06:38:29;;;;;;;19.98;7.10;;;0.60;99.90;;;;;;5036428;28;20139;-85
2023/01/26 06:40:57;;;;;;;19.17;8.48;;;0.60;99.90;;;;;;5054039;28;20369;-85
2023/01/26 06:43:23;;;;;;;16.70;7.53;;;0.60;99.90;;;;;;5053252;28;20534;-87
2023/01/26 06:45:48;;;;;;;17.92;7.47;;;0.60;99.90;;;;;;5036576;28;20045;-87
2023/01/26 06:48:14;;;;;;;20.38;7.47;;;1.00;99.90;;;;;;5052020;28;20053;-85
2023/01/26 06:50:40;;;;;;;16.75;7.80;;;0.60;99.90;;;;;;5052339;28;20052;-84
2023/01/26 06:53:35;;;;;;;18.13;7.60;;;0.90;99.90;;;;;;5052719;28;20128;-86
2023/01/26 06:56:01;;;;;;;18.30;8.32;;;0.60;99.90;;;;;;5053807;28;20472;-87
2023/01/26 06:58:27;;;;;;;18.20;7.93;;;0.60;99.90;;;;;;5052457;28;20056;-85
2023/01/26 07:00:53;;;;;;;17.35;7.25;;;0.60;99.90;;;;;;5052398;28;20073;-84
2023/01/26 07:03:19;;;;;;;18.95;8.50;;;0.60;99.90;;;;;;5052456;28;20053;-89
2023/01/26 07:05:44;;;;;;;18.23;8.10;;;0.70;99.90;;;;;;5052934;28;20052;-87
2023/01/26 07:08:10;;;;;;;20.67;8.73;;;0.60;99.90;;;;;;5052707;28;20107;-89
2023/01/26 07:10:36;;;;;;;22.80;8.70;;;0.50;99.90;;;;;;5035872;28;20048;-89
2023/01/26 07:13:03;;;;;;;22.23;7.55;;;0.60;99.90;;;;;;5052529;28;20048;-83
2023/01/26 07:15:28;;;;;;;28.15;8.02;;;0.60;99.90;;;;;;5035718;28;20084;-83
2023/01/26 07:17:57;;;;;;;26.73;7.95;;;0.90;99.90;;;;;;5053338;28;20499;-86
2023/01/26 07:20:23;;;;;;;22.38;8.43;;;0.70;99.90;;;;;;5035649;28;20048;-86
2023/01/26 07:22:50;;;;;;;25.15;9.50;;;0.70;99.90;;;;;;5053636;28;20041;-86
2023/01/26 07:25:16;;;;;;;28.08;9.02;;;0.80;99.90;;;;;;5052426;28;20083;-87
2023/01/26 07:27:42;;;;;;;26.30;7.93;;;0.90;99.90;;;;;;5053092;28;20052;-81
2023/01/26 07:30:09;;;;;;;24.65;9.05;;;0.70;99.90;;;;;;5053129;28;20045;-84
2023/01/26 07:32:35;;;;;;;;;;;0.80;99.90;;;;;;5053973;28;20048;-88
2023/01/26 07:35:00;;;;;;;32.53;9.40;;;0.80;99.90;;;;;;5052113;28;19921;-87
2023/01/26 07:37:27;;;;;;;26.50;9.07;;;0.70;99.90;;;;;;5035073;28;20534;-81
2023/01/26 07:39:52;;;;;;;36.25;9.88;;;0.80;99.90;;;;;;5067853;28;20072;-81
2023/01/26 07:42:18;;;;;;;27.23;9.55;;;0.80;99.90;;;;;;5051897;28;20044;-77
2023/01/26 07:44:44;;;;;;;30.17;9.45;;;0.80;99.90;;;;;;5052805;28;20132;-85
2023/01/26 07:47:09;;;;;;;27.05;9.43;;;0.80;99.90;;;;;;5052150;28;20037;-90
2023/01/26 07:49:35;;;;;;;34.15;10.20;;;0.80;99.90;;;;;;5035711;28;20095;-87
2023/01/26 07:52:01;;;;;;;29.20;9.48;;;0.80;99.90;;;;;;5052093;28;20041;-86
2023/01/26 07:54:26;;;;;;;34.40;10.32;;;0.70;99.90;;;;;;5052083;28;20071;-86
2023/01/26 07:56:53;;;;;;;33.67;9.48;;;1.00;99.90;;;;;;5035826;28;20049;-90
2023/01/26 07:59:20;;;;;;;30.20;10.23;;;0.90;99.90;;;;;;5054845;28;20045;-87
2023/01/26 08:01:47;;;;;;;45.13;11.43;;;0.80;99.90;;;;;;5056061;28;20400;-85
2023/01/26 08:04:13;;;;;;;31.63;10.23;;;0.90;99.90;;;;;;5055762;28;20610;-83
2023/01/26 08:06:38;;;;;;;35.20;10.45;;;0.90;99.90;;;;;;5068478;28;20123;-85
2023/01/26 08:09:04;;;;;;;33.42;10.80;;;0.90;99.90;;;;;;5075508;28;20044;-90
2023/01/26 08:11:29;;;;;;;31.63;10.48;;;0.90;99.90;;;;;;5059292;28;20044;-86
2023/01/26 08:13:55;;;;;;;34.80;10.18;;;1.20;99.90;;;;;;5058816;28;20040;-80
2023/01/26 08:16:21;;;;;;;38.60;11.95;;;0.90;99.90;;;;;;5076490;28;20052;-77
2023/01/26 08:18:47;;;;;;;37.80;11.13;;;1.10;99.90;;;;;;5076415;28;20040;-84
2023/01/26 08:21:14;;;;;;;35.78;10.48;;;1.00;99.90;;;;;;5072529;28;20072;-83
2023/01/26 08:23:40;;;;;;;38.30;11.10;;;1.10;99.90;;;;;;5074493;28;20677;-83
2023/01/26 08:26:09;;;;;;;34.30;10.95;;;1.00;99.90;;;;;;5075594;28;20086;-84
2023/01/26 08:28:35;;;;;;;37.65;11.32;;;1.20;99.90;;;;;;5075113;28;20047;-84
2023/01/26 08:31:06;;;;;;;32.15;10.98;;;1.10;99.90;;;;;;5075256;28;20464;-84
2023/01/26 08:33:32;;;;;;;38.35;12.48;;;1.00;99.90;;;;;;5075566;28;20041;-83
2023/01/26 08:36:06;;;;;;;31.10;11.60;;;2.30;99.90;;;;;;5075215;28;20041;-83
2023/01/26 08:38:33;;;;;;;36.17;12.25;;;1.00;99.90;;;;;;5076409;28;20135;-84
2023/01/26 08:40:59;;;;;;;;;;;1.10;99.90;;;;;;5075716;28;20059;-83
2023/01/26 08:43:25;;;;;;;30.40;10.35;;;1.10;99.90;;;;;;5074840;28;19931;-83
2023/01/26 08:45:51;;;;;;;37.38;12.40;;;1.10;99.90;;;;;;5076326;28;20037;-83
2023/01/26 08:48:17;;;;;;;40.70;11.05;;;1.10;99.90;;;;;;5058063;28;20522;-84
2023/01/26 08:50:43;;;;;;;33.47;11.90;;;1.20;99.90;;;;;;5075959;28;20105;-84
2023/01/26 08:53:08;;;;;;;33.88;11.80;;;1.20;99.90;;;;;;5075189;28;20040;-83
2023/01/26 08:55:35;;;;;;;36.20;12.70;;;1.20;99.90;;;;;;5075860;28;20047;-84
2023/01/26 08:58:01;;;;;;;42.23;14.13;;;1.20;99.90;;;;;;5074840;28;20543;-83
2023/01/26 09:00:27;;;;;;;37.95;12.38;;;1.20;99.90;;;;;;5074856;28;20128;-84
2023/01/26 09:03:00;;;;;;;31.10;10.98;;;1.30;99.90;;;;;;5074563;28;20553;-83
2023/01/26 09:05:27;;;;;;;39.38;12.70;;;1.20;99.90;;;;;;5075433;28;20546;-83
2023/01/26 09:07:53;;;;;;;37.10;11.45;;;1.20;99.90;;;;;;5075687;28;20044;-84
2023/01/26 09:10:18;;;;;;;28.23;11.07;;;1.20;99.90;;;;;;5073625;28;20036;-84
2023/01/26 09:12:44;;;;;;;27.70;11.18;;;1.40;99.90;;;;;;5074495;28;20458;-83
2023/01/26 09:15:10;;;;;;;28.77;10.52;;;1.30;99.90;;;;;;5057885;28;20048;-84
2023/01/26 09:17:36;;;;;;;31.42;11.13;;;1.10;99.90;;;;;;5075421;28;20052;-83
2023/01/26 09:20:03;;;;;;;30.85;10.70;;;1.10;99.90;;;;;;5074131;28;20068;-82
2023/01/26 09:22:29;;;;;;;35.67;12.82;;;1.10;99.90;;;;;;5075290;28;20052;-83
2023/01/26 09:24:55;;;;;;;31.55;11.27;;;1.10;99.90;;;;;;5075256;28;20045;-84
2023/01/26 09:27:21;;;;;;;35.25;11.80;;;1.10;99.90;;;;;;5075298;28;20484;-83
2023/01/26 09:29:47;;;;;;;46.00;14.23;;;1.10;99.90;;;;;;5075147;28;20036;-83
2023/01/26 09:32:12;;;;;;;66.20;13.20;;;1.70;99.90;;;;;;5075553;28;20523;-84
2023/01/26 09:34:38;;;;;;;73.13;14.57;;;1.00;99.90;;;;;;5075135;28;20046;-83
2023/01/26 09:37:08;;;;;;;74.97;16.23;;;1.00;99.90;;;;;;5073976;28;20102;-84
2023/01/26 09:39:34;;;;;;;77.30;13.23;;;1.10;99.90;;;;;;5074169;28;20049;-84
2023/01/26 09:42:14;;;;;;;55.92;11.50;;;1.60;99.90;;;;;;5074980;28;20461;-83
2023/01/26 09:44:50;;;;;;;61.25;10.55;;;1.10;99.90;;;;;;5074158;28;20045;-84
2023/01/26 09:47:20;;;;;;;45.72;9.40;;;1.10;99.90;;;;;;5074896;28;20047;-83
2023/01/26 09:49:48;;;;;;;47.78;9.80;;;1.20;99.90;;;;;;5074732;28;20063;-84
2023/01/26 09:52:22;;;;;;;53.17;9.40;;;1.30;99.90;;;;;;5073602;28;20071;-84
2023/01/26 09:54:51;;;;;;;45.20;9.38;;;1.30;99.90;;;;;;5073719;28;20426;-84
2023/01/26 09:57:40;;;;;;;47.45;9.70;;;1.40;99.90;;;;;;5074920;28;20048;-84
2023/01/26 10:00:20;;;;;;;34.05;8.27;;;1.40;99.90;;;;;;5073535;28;20044;-84
2023/01/26 10:02:51;;;;;;;63.25;9.48;;;1.50;99.90;;;;;;5073282;28;20040;-83
2023/01/26 10:05:27;;;;;;;43.67;10.15;;;1.50;99.90;;;;;;5074878;28;20049;-83
2023/01/26 10:07:53;;;;;;;37.10;7.65;;;1.60;99.90;;;;;;5073904;28;20047;-84
2023/01/26 10:10:33;;;;;;;34.78;9.75;;;1.60;99.90;;;;;;5073120;28;20484;-84
2023/01/26 10:12:59;;;;;;;29.77;8.55;;;1.70;99.90;;;;;;5074419;28;20040;-84
2023/01/26 10:15:32;;;;;;;21.77;7.17;;;1.80;99.90;;;;;;5075156;28;20380;-84
2023/01/26 10:18:12;;;;;;;18.02;7.15;;;1.80;99.90;;;;;;5073125;28;20291;-83
2023/01/26 10:20:53;;;;;;;15.77;7.43;;;1.90;99.90;;;;;;5056834;28;20062;-83
2023/01/26 10:23:27;;;;;;;23.20;7.32;;;2.00;99.90;;;;;;5074323;28;20047;-83
2023/01/26 10:25:55;;;;;;;17.92;7.32;;;2.10;99.90;;;;;;5073279;28;20131;-83
2023/01/26 10:28:28;;;;;;;20.30;8.05;;;2.20;99.90;;;;;;5056466;28;20048;-84
2023/01/26 10:30:54;;;;;;;27.13;10.32;;;2.30;99.90;;;;;;5074141;28;20133;-84
2023/01/26 10:33:31;;;;;;;31.67;13.65;;;2.40;99.90;;;;;;5074121;28;20084;-84
2023/01/26 10:35:57;;;;;;;30.70;10.75;;;;;;;;;;5073191;28;20048;-84
2023/01/26 10:38:32;;;;;;;30.10;9.13;;;2.60;99.90;;;;;;5072789;28;20052;-84
2023/01/26 10:41:17;;;;;;;29.15;8.95;;;2.70;99.90;;;;;;5073163;28;20378;-83
2023/01/26 10:43:55;;;;;;;25.77;7.28;;;2.90;99.90;;;;;;5056510;28;20052;-84
2023/01/26 10:46:32;;;;;;;24.80;7.63;;;3.00;99.90;;;;;;5074109;28;20119;-84
2023/01/26 10:49:02;;;;;;;27.17;8.07;;;3.20;99.90;;;;;;5055949;28;20084;-83
2023/01/26 10:51:33;;;;;;;22.17;7.65;;;3.30;99.90;;;;;;5056065;28;20129;-83
2023/01/26 10:54:18;;;;;;;34.88;7.90;;;3.50;99.90;;;;;;5072422;28;20067;-83
2023/01/26 10:56:59;;;;;;;30.63;6.22;;;3.70;99.90;;;;;;5072829;28;20048;-84
2023/01/26 10:59:26;;;;;;;25.48;6.00;;;3.90;99.90;;;;;;5073076;28;20054;-83
2023/01/26 11:02:01;;;;;;;25.38;6.35;;;4.10;99.90;;;;;;5073853;28;20055;-83
2023/01/26 11:04:27;;;;;;;29.05;6.50;;;4.30;99.90;;;;;;5072827;28;20512;-84
2023/01/26 11:06:53;;;;;;;26.10;6.37;;;4.50;99.90;;;;;;5073722;28;20051;-84
2023/01/26 11:09:25;;;;;;;33.38;5.75;;;4.60;99.90;;;;;;5074023;28;20694;-84
2023/01/26 11:12:03;;;;;;;25.23;5.80;;;4.80;99.90;;;;;;5073936;28;20044;-84
2023/01/26 11:14:31;;;;;;;32.00;4.25;;;4.90;99.90;;;;;;5072938;28;20093;-84
2023/01/26 11:17:20;;;;;;;29.67;5.70;;;5.10;99.90;;;;;;5073358;28;20052;-84
2023/01/26 11:20:06;;;;;;;24.42;4.72;;;5.30;99.90;;;;;;5072750;28;20040;-83
2023/01/26 11:23:03;;;;;;;25.25;3.63;;;5.40;99.90;;;;;;5072359;28;20048;-83
2023/01/26 11:25:43;;;;;;;25.13;4.38;;;5.60;99.90;;;;;;5073794;28;20036;-84
2023/01/26 11:28:17;;;;;;;20.85;3.38;;;5.70;99.90;;;;;;5055958;28;20135;-85
2023/01/26 11:31:19;;;;;;;24.83;3.97;;;5.80;99.90;;;;;;5073019;28;20049;-84
2023/01/26 11:33:52;;;;;;;26.77;4.82;;;5.90;99.90;;;;;;5063173;28;20048;-84
2023/01/26 11:36:56;;;;;;;16.27;3.72;;;6.10;99.90;;;;;;5077545;28;20048;-84
2023/01/26 11:39:37;;;;;;;23.52;3.17;;;6.20;99.90;;;;;;5039818;28;20079;-84
2023/01/26 11:42:05;;;;;;;24.33;3.38;;;6.30;99.90;;;;;;5077368;28;20056;-84
2023/01/26 11:44:34;;;;;;;22.48;3.58;;;6.80;99.90;;;;;;5076145;28;20052;-84
2023/01/26 11:47:03;;;;;;;21.48;3.40;;;6.50;99.90;;;;;;5076172;28;20052;-84
2023/01/26 11:49:55;;;;;;;16.85;3.17;;;6.60;99.90;;;;;;5075755;28;20060;-84
2023/01/26 11:52:27;;;;;;;19.63;3.20;;;6.60;99.90;;;;;;5076804;28;20060;-84
2023/01/26 11:55:26;;;;;;;19.95;2.85;;;6.70;99.90;;;;;;5059671;28;20046;-84
2023/01/26 11:58:16;;;;;;;17.25;3.25;;;6.80;99.90;;;;;;5075903;28;20553;-84
2023/01/26 12:01:02;;;;;;;23.70;3.78;;;6.90;99.90;;;;;;5077159;28;20041;-84
2023/01/26 12:03:48;;;;;;;18.00;3.33;;;7.80;99.90;;;;;;5075920;28;20052;-84
2023/01/26 12:06:37;;;;;;;19.70;3.42;;;7.20;99.90;;;;;;5059232;28;20483;-84
2023/01/26 12:09:20;;;;;;;21.63;3.42;;;7.00;99.90;;;;;;5076104;28;20037;-84
2023/01/26 12:11:49;;;;;;;23.08;5.00;;;7.10;99.90;;;;;;5076011;28;20114;-84
2023/01/26 12:14:34;;;;;;;10.93;2.55;;;7.40;99.90;;;;;;5076672;28;20483;-84
2023/01/26 12:17:14;;;;;;;17.75;3.42;;;7.30;99.90;;;;;;5077259;28;20094;-84
2023/01/26 12:20:05;;;;;;;19.98;3.42;;;7.30;99.90;;;;;;5076801;28;20036;-84
2023/01/26 12:22:37;;;;;;;13.00;3.03;;;7.30;99.90;;;;;;5075913;28;20057;-84
2023/01/26 12:25:33;;;;;;;15.85;3.28;;;7.40;99.90;;;;;;5076054;28;20050;-84
2023/01/26 12:28:19;;;;;;;10.55;2.97;;;7.40;99.90;;;;;;5076088;28;20365;-83
2023/01/26 12:30:58;;;;;;;24.33;3.78;;;7.50;99.90;;;;;;5075618;28;20076;-83
2023/01/26 12:33:24;;;;;;;17.35;3.47;;;7.50;99.90;;;;;;5075505;28;20186;-84
2023/01/26 12:35:55;;;;;;;20.23;4.07;;;7.40;99.90;;;;;;5076463;28;20123;-84
2023/01/26 12:38:35;;;;;;;18.77;4.15;;;7.40;99.90;;;;;;5076361;28;20081;-84
2023/01/26 12:41:12;;;;;;;13.88;3.30;;;7.40;99.90;;;;;;5075501;28;20086;-83
2023/01/26 12:43:47;;;;;;;14.65;3.47;;;7.40;99.90;;;;;;5076260;28;20101;-83
2023/01/26 12:46:14;;;;;;;32.72;5.13;;;7.40;99.90;;;;;;5074291;28;20144;-83
2023/01/26 12:48:43;;;;;;;;;;;7.40;99.90;;;;;;5075320;28;20120;-83
2023/01/26 12:51:22;;;;;;;13.60;4.85;;;8.10;99.90;;;;;;5074872;28;19920;-83
2023/01/26 12:53:59;;;;;;;17.85;3.72;;;7.50;99.90;;;;;;5058428;28;20101;-83
2023/01/26 12:56:31;;;;;;;23.20;4.07;;;7.70;99.90;;;;;;5076087;28;20502;-83
2023/01/26 12:58:59;;;;;;;19.10;4.00;;;7.50;99.90;;;;;;5058552;28;20098;-83
2023/01/26 13:01:35;;;;;;;20.45;3.70;;;7.60;99.90;;;;;;5075078;28;20053;-83
2023/01/26 13:04:12;;;;;;;19.15;4.50;;;7.60;99.90;;;;;;5074990;28;20510;-83
2023/01/26 13:06:38;;;;;;;15.82;4.15;;;7.60;99.90;;;;;;5074555;28;20091;-83
2023/01/26 13:09:24;;;;;;;20.73;4.27;;;7.50;99.90;;;;;;5076239;28;20503;-83
2023/01/26 13:11:53;;;;;;;18.95;3.40;;;7.40;99.90;;;;;;5075760;28;20495;-83
2023/01/26 13:14:56;;;;;;;13.00;2.35;;;7.30;99.90;;;;;;5058006;28;20143;-83
2023/01/26 13:17:24;;;;;;;15.10;2.35;;;7.30;99.90;;;;;;5074691;28;20048;-83
2023/01/26 13:19:52;;;;;;;12.38;2.25;;;7.30;99.90;;;;;;5075948;28;20055;-83
2023/01/26 13:22:18;;;;;;;16.02;3.25;;;7.30;99.90;;;;;;5074570;28;20486;-83
2023/01/26 13:24:48;;;;;;;19.50;2.85;;;7.20;99.90;;;;;;5075662;28;20048;-83
2023/01/26 13:27:42;;;;;;;13.98;2.50;;;7.80;99.90;;;;;;5074195;28;20399;-83
2023/01/26 13:30:26;;;;;;;13.30;3.13;;;7.10;99.90;;;;;;5074556;28;20041;-83
2023/01/26 13:33:03;;;;;;;13.77;2.50;;;7.10;99.90;;;;;;5074750;28;20045;-83
2023/01/26 13:35:30;;;;;;;13.88;2.97;;;7.50;99.90;;;;;;5057727;28;20044;-83
2023/01/26 13:38:27;;;;;;;14.25;2.75;;;7.20;99.90;;;;;;5057502;28;20090;-83
2023/01/26 13:40:54;;;;;;;10.52;2.13;;;7.20;99.90;;;;;;5075289;28;20519;-83